sensor_id;sensor_type;location;lat;lon;timestamp;temperature;humidity
5834;DHT22;2943;48.012;10.968;2023-11-19T00:00:05;6.50;99.90
5834;DHT22;2943;48.012;10.968;2023-11-19T00:02:32;6.50;99.90
5834;DHT22;2943;48.012;10.968;2023-11-19T00:04:58;6.60;99.90
5834;DHT22;2943;48.012;10.968;2023-11-19T00:07:25;6.60;99.90
5834;DHT22;2943;48.012;10.968;2023-11-19T00:09:52;6.60;99.90
5834;DHT22;2943;48.012;10.968;2023-11-19T00:12:21;6.70;99.90
5834;DHT22;2943;48.012;10.968;2023-11-19T00:14:50;6.70;99.90
5834;DHT22;2943;48.012;10.968;2023-11-19T00:17:18;6.70;99.90
5834;DHT22;2943;48.012;10.968;2023-11-19T00:19:47;6.70;99.90
5834;DHT22;2943;48.012;10.968;2023-11-19T00:22:16;6.80;99.90
5834;DHT22;2943;48.012;10.968;2023-11-19T00:24:43;6.80;99.90
5834;DHT22;2943;48.012;10.968;2023-11-19T00:27:10;6.80;99.90
5834;DHT22;2943;48.012;10.968;2023-11-19T00:29:38;6.80;99.90
5834;DHT22;2943;48.012;10.968;2023-11-19T00:32:10;6.80;99.90
5834;DHT22;2943;48.012;10.968;2023-11-19T00:34:37;6.90;99.90
5834;DHT22;2943;48.012;10.968;2023-11-19T00:37:03;6.90;99.90
5834;DHT22;2943;48.012;10.968;2023-11-19T00:39:30;6.90;99.90
5834;DHT22;2943;48.012;10.968;2023-11-19T00:41:57;7.00;99.90
5834;DHT22;2943;48.012;10.968;2023-11-19T00:44:26;7.00;99.90
5834;DHT22;2943;48.012;10.968;2023-11-19T00:46:55;7.10;99.90
5834;DHT22;2943;48.012;10.968;2023-11-19T00:49:22;7.10;99.90
5834;DHT22;2943;48.012;10.968;2023-11-19T00:51:49;7.20;99.90
5834;DHT22;2943;48.012;10.968;2023-11-19T00:54:15;7.30;99.90
5834;DHT22;2943;48.012;10.968;2023-11-19T00:56:42;7.40;99.90
5834;DHT22;2943;48.012;10.968;2023-11-19T00:59:10;7.50;99.90
5834;DHT22;2943;48.012;10.968;2023-11-19T01:01:36;7.60;99.90
5834;DHT22;2943;48.012;10.968;2023-11-19T01:04:05;7.70;99.90
5834;DHT22;2943;48.012;10.968;2023-11-19T01:06:32;7.80;99.90
5834;DHT22;2943;48.012;10.968;2023-11-19T01:08:58;7.90;99.90
5834;DHT22;2943;48.012;10.968;2023-11-19T01:11:29;8.00;99.90
5834;DHT22;2943;48.012;10.968;2023-11-19T01:13:58;8.10;99.90
5834;DHT22;2943;48.012;10.968;2023-11-19T01:16:25;8.20;99.90
5834;DHT22;2943;48.012;10.968;2023-11-19T01:18:57;8.20;99.90
5834;DHT22;2943;48.012;10.968;2023-11-19T01:21:25;8.30;99.90
5834;DHT22;2943;48.012;10.968;2023-11-19T01:23:54;8.30;99.90
5834;DHT22;2943;48.012;10.968;2023-11-19T01:26:21;8.40;99.90
5834;DHT22;2943;48.012;10.968;2023-11-19T01:28:48;8.40;99.90
5834;DHT22;2943;48.012;10.968;2023-11-19T01:31:17;8.40;99.90
5834;DHT22;2943;48.012;10.968;2023-11-19T01:33:44;8.40;99.90
5834;DHT22;2943;48.012;10.968;2023-11-19T01:36:12;8.50;99.90
5834;DHT22;2943;48.012;10.968;2023-11-19T01:38:40;8.40;99.90
5834;DHT22;2943;48.012;10.968;2023-11-19T01:41:07;8.50;99.90
5834;DHT22;2943;48.012;10.968;2023-11-19T01:43:34;8.50;99.90
5834;DHT22;2943;48.012;10.968;2023-11-19T01:46:01;8.60;99.90
5834;DHT22;2943;48.012;10.968;2023-11-19T01:48:29;8.60;99.90
5834;DHT22;2943;48.012;10.968;2023-11-19T01:50:58;8.60;99.90
5834;DHT22;2943;48.012;10.968;2023-11-19T01:53:25;8.60;99.90
5834;DHT22;2943;48.012;10.968;2023-11-19T01:55:53;8.60;99.90
5834;DHT22;2943;48.012;10.968;2023-11-19T01:58:19;8.60;99.90
5834;DHT22;2943;48.012;10.968;2023-11-19T02:00:46;8.60;99.90
5834;DHT22;2943;48.012;10.968;2023-11-19T02:03:13;8.70;99.90
5834;DHT22;2943;48.012;10.968;2023-11-19T02:05:40;8.70;99.90
5834;DHT22;2943;48.012;10.968;2023-11-19T02:08:07;8.70;99.90
5834;DHT22;2943;48.012;10.968;2023-11-19T02:10:34;8.70;99.90
5834;DHT22;2943;48.012;10.968;2023-11-19T02:13:02;8.70;99.90
5834;DHT22;2943;48.012;10.968;2023-11-19T02:15:31;8.70;99.90
5834;DHT22;2943;48.012;10.968;2023-11-19T02:18:17;8.70;99.90
5834;DHT22;2943;48.012;10.968;2023-11-19T02:20:44;8.70;99.90
5834;DHT22;2943;48.012;10.968;2023-11-19T02:23:11;8.70;99.90
5834;DHT22;2943;48.012;10.968;2023-11-19T02:25:38;8.70;99.90
5834;DHT22;2943;48.012;10.968;2023-11-19T02:28:06;8.70;99.90
5834;DHT22;2943;48.012;10.968;2023-11-19T02:30:33;8.70;99.90
5834;DHT22;2943;48.012;10.968;2023-11-19T02:33:00;8.80;99.90
5834;DHT22;2943;48.012;10.968;2023-11-19T02:35:32;8.80;99.90
5834;DHT22;2943;48.012;10.968;2023-11-19T02:38:02;8.80;99.90
5834;DHT22;2943;48.012;10.968;2023-11-19T02:40:29;8.80;99.90
5834;DHT22;2943;48.012;10.968;2023-11-19T02:42:55;8.80;99.90
5834;DHT22;2943;48.012;10.968;2023-11-19T02:45:25;8.80;99.90
5834;DHT22;2943;48.012;10.968;2023-11-19T02:47:51;8.80;99.90
5834;DHT22;2943;48.012;10.968;2023-11-19T02:50:20;8.90;99.90
5834;DHT22;2943;48.012;10.968;2023-11-19T02:52:51;8.90;99.90
5834;DHT22;2943;48.012;10.968;2023-11-19T02:55:18;8.90;99.90
5834;DHT22;2943;48.012;10.968;2023-11-19T02:57:45;8.90;99.90
5834;DHT22;2943;48.012;10.968;2023-11-19T03:00:14;8.90;99.90
5834;DHT22;2943;48.012;10.968;2023-11-19T03:02:42;8.90;99.90
5834;DHT22;2943;48.012;10.968;2023-11-19T03:05:11;9.00;99.90
5834;DHT22;2943;48.012;10.968;2023-11-19T03:07:40;9.00;99.90
5834;DHT22;2943;48.012;10.968;2023-11-19T03:10:08;9.00;99.90
5834;DHT22;2943;48.012;10.968;2023-11-19T03:12:37;9.00;99.90
5834;DHT22;2943;48.012;10.968;2023-11-19T03:15:04;9.00;99.90
5834;DHT22;2943;48.012;10.968;2023-11-19T03:17:31;9.00;99.90
5834;DHT22;2943;48.012;10.968;2023-11-19T03:20:00;9.00;99.90
5834;DHT22;2943;48.012;10.968;2023-11-19T03:22:26;9.10;99.90
5834;DHT22;2943;48.012;10.968;2023-11-19T03:24:53;9.10;99.90
5834;DHT22;2943;48.012;10.968;2023-11-19T03:27:20;9.10;99.90
5834;DHT22;2943;48.012;10.968;2023-11-19T03:29:46;9.10;99.90
5834;DHT22;2943;48.012;10.968;2023-11-19T03:32:13;9.10;99.90
5834;DHT22;2943;48.012;10.968;2023-11-19T03:34:40;9.10;99.90
5834;DHT22;2943;48.012;10.968;2023-11-19T03:37:08;9.10;99.90
5834;DHT22;2943;48.012;10.968;2023-11-19T03:39:35;9.20;99.90
5834;DHT22;2943;48.012;10.968;2023-11-19T03:42:04;9.20;99.90
5834;DHT22;2943;48.012;10.968;2023-11-19T03:44:31;9.20;99.90
5834;DHT22;2943;48.012;10.968;2023-11-19T03:46:58;9.10;99.90
5834;DHT22;2943;48.012;10.968;2023-11-19T03:49:25;9.20;99.90
5834;DHT22;2943;48.012;10.968;2023-11-19T03:51:52;9.20;99.90
5834;DHT22;2943;48.012;10.968;2023-11-19T03:54:20;9.20;99.90
5834;DHT22;2943;48.012;10.968;2023-11-19T03:56:48;9.20;99.90
5834;DHT22;2943;48.012;10.968;2023-11-19T03:59:15;9.20;99.90
5834;DHT22;2943;48.012;10.968;2023-11-19T04:01:42;9.20;99.90
5834;DHT22;2943;48.012;10.968;2023-11-19T04:04:08;9.20;99.90
5834;DHT22;2943;48.012;10.968;2023-11-19T04:06:35;9.30;99.90
5834;DHT22;2943;48.012;10.968;2023-11-19T04:09:01;9.30;99.90
5834;DHT22;2943;48.012;10.968;2023-11-19T04:11:32;9.20;99.90
5834;DHT22;2943;48.012;10.968;2023-11-19T04:13:59;9.20;99.90
5834;DHT22;2943;48.012;10.968;2023-11-19T04:16:26;9.20;99.90
5834;DHT22;2943;48.012;10.968;2023-11-19T04:18:54;9.20;99.90
5834;DHT22;2943;48.012;10.968;2023-11-19T04:21:21;9.20;99.90
5834;DHT22;2943;48.012;10.968;2023-11-19T04:23:48;9.20;99.90
5834;DHT22;2943;48.012;10.968;2023-11-19T04:26:15;9.20;99.90
5834;DHT22;2943;48.012;10.968;2023-11-19T04:28:43;9.20;99.90
5834;DHT22;2943;48.012;10.968;2023-11-19T04:31:10;9.20;99.90
5834;DHT22;2943;48.012;10.968;2023-11-19T04:33:37;9.20;99.90
5834;DHT22;2943;48.012;10.968;2023-11-19T04:36:07;9.20;99.90
5834;DHT22;2943;48.012;10.968;2023-11-19T04:38:34;9.20;99.90
5834;DHT22;2943;48.012;10.968;2023-11-19T04:41:01;9.20;99.90
5834;DHT22;2943;48.012;10.968;2023-11-19T04:43:27;9.30;99.90
5834;DHT22;2943;48.012;10.968;2023-11-19T04:45:56;9.20;99.90
5834;DHT22;2943;48.012;10.968;2023-11-19T04:48:23;9.20;99.90
5834;DHT22;2943;48.012;10.968;2023-11-19T04:50:49;9.20;99.90
5834;DHT22;2943;48.012;10.968;2023-11-19T04:53:18;9.20;99.90
5834;DHT22;2943;48.012;10.968;2023-11-19T04:55:44;9.20;99.90
5834;DHT22;2943;48.012;10.968;2023-11-19T04:58:11;9.20;99.90
5834;DHT22;2943;48.012;10.968;2023-11-19T05:00:38;9.20;99.90
5834;DHT22;2943;48.012;10.968;2023-11-19T05:03:12;9.20;99.90
5834;DHT22;2943;48.012;10.968;2023-11-19T05:05:39;9.10;99.90
5834;DHT22;2943;48.012;10.968;2023-11-19T05:08:08;9.20;99.90
5834;DHT22;2943;48.012;10.968;2023-11-19T05:10:36;9.20;99.90
5834;DHT22;2943;48.012;10.968;2023-11-19T05:13:03;9.20;99.90
5834;DHT22;2943;48.012;10.968;2023-11-19T05:15:30;9.10;99.90
5834;DHT22;2943;48.012;10.968;2023-11-19T05:17:57;9.10;99.90
5834;DHT22;2943;48.012;10.968;2023-11-19T05:20:25;9.20;99.90
5834;DHT22;2943;48.012;10.968;2023-11-19T05:22:51;9.20;99.90
5834;DHT22;2943;48.012;10.968;2023-11-19T05:25:18;9.20;99.90
5834;DHT22;2943;48.012;10.968;2023-11-19T05:27:46;9.10;99.90
5834;DHT22;2943;48.012;10.968;2023-11-19T05:30:12;9.20;99.90
5834;DHT22;2943;48.012;10.968;2023-11-19T05:32:40;9.20;99.90
5834;DHT22;2943;48.012;10.968;2023-11-19T05:35:09;9.20;99.90
5834;DHT22;2943;48.012;10.968;2023-11-19T05:37:37;9.20;99.90
5834;DHT22;2943;48.012;10.968;2023-11-19T05:40:05;9.20;99.90
5834;DHT22;2943;48.012;10.968;2023-11-19T05:42:39;9.20;99.90
5834;DHT22;2943;48.012;10.968;2023-11-19T05:45:07;9.20;99.90
5834;DHT22;2943;48.012;10.968;2023-11-19T05:47:34;9.20;99.90
5834;DHT22;2943;48.012;10.968;2023-11-19T05:50:01;9.30;99.90
5834;DHT22;2943;48.012;10.968;2023-11-19T05:52:29;9.30;99.90
5834;DHT22;2943;48.012;10.968;2023-11-19T05:55:09;9.30;99.90
5834;DHT22;2943;48.012;10.968;2023-11-19T05:57:41;9.30;99.90
5834;DHT22;2943;48.012;10.968;2023-11-19T06:00:12;9.30;99.90
5834;DHT22;2943;48.012;10.968;2023-11-19T06:02:41;9.30;99.90
5834;DHT22;2943;48.012;10.968;2023-11-19T06:05:10;9.30;99.90
5834;DHT22;2943;48.012;10.968;2023-11-19T06:07:37;9.40;99.90
5834;DHT22;2943;48.012;10.968;2023-11-19T06:10:06;9.40;99.90
5834;DHT22;2943;48.012;10.968;2023-11-19T06:12:35;9.40;99.90
5834;DHT22;2943;48.012;10.968;2023-11-19T06:15:03;9.40;99.90
5834;DHT22;2943;48.012;10.968;2023-11-19T06:17:30;9.40;99.90
5834;DHT22;2943;48.012;10.968;2023-11-19T06:19:57;9.40;99.90
5834;DHT22;2943;48.012;10.968;2023-11-19T06:22:24;9.40;99.90
5834;DHT22;2943;48.012;10.968;2023-11-19T06:24:50;9.50;99.90
5834;DHT22;2943;48.012;10.968;2023-11-19T06:27:20;9.50;99.90
5834;DHT22;2943;48.012;10.968;2023-11-19T06:29:47;9.50;99.90
5834;DHT22;2943;48.012;10.968;2023-11-19T06:32:14;9.50;99.90
5834;DHT22;2943;48.012;10.968;2023-11-19T06:34:41;9.50;99.90
5834;DHT22;2943;48.012;10.968;2023-11-19T06:37:07;9.50;99.90
5834;DHT22;2943;48.012;10.968;2023-11-19T06:39:34;9.50;99.90
5834;DHT22;2943;48.012;10.968;2023-11-19T06:42:02;9.50;99.90
5834;DHT22;2943;48.012;10.968;2023-11-19T06:44:31;9.50;99.90
5834;DHT22;2943;48.012;10.968;2023-11-19T06:46:58;9.50;99.90
5834;DHT22;2943;48.012;10.968;2023-11-19T06:49:24;9.50;99.90
5834;DHT22;2943;48.012;10.968;2023-11-19T06:51:51;9.60;99.90
5834;DHT22;2943;48.012;10.968;2023-11-19T06:54:18;9.60;99.90
5834;DHT22;2943;48.012;10.968;2023-11-19T06:56:44;9.60;99.90
5834;DHT22;2943;48.012;10.968;2023-11-19T06:59:14;9.60;99.90
5834;DHT22;2943;48.012;10.968;2023-11-19T07:01:42;9.60;99.90
5834;DHT22;2943;48.012;10.968;2023-11-19T07:04:10;9.70;99.90
5834;DHT22;2943;48.012;10.968;2023-11-19T07:06:37;9.70;99.90
5834;DHT22;2943;48.012;10.968;2023-11-19T07:09:07;9.70;99.90
5834;DHT22;2943;48.012;10.968;2023-11-19T07:11:35;9.70;99.90
5834;DHT22;2943;48.012;10.968;2023-11-19T07:14:04;9.70;99.90
5834;DHT22;2943;48.012;10.968;2023-11-19T07:16:31;9.70;99.90
5834;DHT22;2943;48.012;10.968;2023-11-19T07:18:59;9.80;99.90
5834;DHT22;2943;48.012;10.968;2023-11-19T07:21:26;9.80;99.90
5834;DHT22;2943;48.012;10.968;2023-11-19T07:23:54;9.80;99.90
5834;DHT22;2943;48.012;10.968;2023-11-19T07:26:21;9.80;99.90
5834;DHT22;2943;48.012;10.968;2023-11-19T07:28:48;9.80;99.90
5834;DHT22;2943;48.012;10.968;2023-11-19T07:31:15;9.80;99.90
5834;DHT22;2943;48.012;10.968;2023-11-19T07:33:41;9.90;99.90
5834;DHT22;2943;48.012;10.968;2023-11-19T07:36:11;9.90;99.90
5834;DHT22;2943;48.012;10.968;2023-11-19T07:38:38;9.90;99.90
5834;DHT22;2943;48.012;10.968;2023-11-19T07:41:05;9.90;99.90
5834;DHT22;2943;48.012;10.968;2023-11-19T07:43:34;9.90;99.90
5834;DHT22;2943;48.012;10.968;2023-11-19T07:46:01;10.00;99.90
5834;DHT22;2943;48.012;10.968;2023-11-19T07:48:29;10.00;99.90
5834;DHT22;2943;48.012;10.968;2023-11-19T07:50:56;10.00;99.90
5834;DHT22;2943;48.012;10.968;2023-11-19T07:53:25;10.00;99.90
5834;DHT22;2943;48.012;10.968;2023-11-19T07:55:52;10.00;99.90
5834;DHT22;2943;48.012;10.968;2023-11-19T07:58:19;10.10;99.90
5834;DHT22;2943;48.012;10.968;2023-11-19T08:00:46;10.10;99.90
5834;DHT22;2943;48.012;10.968;2023-11-19T08:03:12;10.10;99.90
5834;DHT22;2943;48.012;10.968;2023-11-19T08:05:39;10.10;99.90
5834;DHT22;2943;48.012;10.968;2023-11-19T08:08:06;10.10;99.90
5834;DHT22;2943;48.012;10.968;2023-11-19T08:10:34;10.10;99.90
5834;DHT22;2943;48.012;10.968;2023-11-19T08:13:01;10.10;99.90
5834;DHT22;2943;48.012;10.968;2023-11-19T08:15:28;10.10;99.90
5834;DHT22;2943;48.012;10.968;2023-11-19T08:17:55;10.20;99.90
5834;DHT22;2943;48.012;10.968;2023-11-19T08:20:22;10.20;99.90
5834;DHT22;2943;48.012;10.968;2023-11-19T08:22:49;10.20;99.90
5834;DHT22;2943;48.012;10.968;2023-11-19T08:25:15;10.20;99.90
5834;DHT22;2943;48.012;10.968;2023-11-19T08:27:43;10.20;99.90
5834;DHT22;2943;48.012;10.968;2023-11-19T08:30:11;10.20;99.90
5834;DHT22;2943;48.012;10.968;2023-11-19T08:32:38;10.20;99.90
5834;DHT22;2943;48.012;10.968;2023-11-19T08:35:05;10.20;99.90
5834;DHT22;2943;48.012;10.968;2023-11-19T08:37:32;10.20;99.90
5834;DHT22;2943;48.012;10.968;2023-11-19T08:39:58;10.20;99.90
5834;DHT22;2943;48.012;10.968;2023-11-19T08:42:26;10.30;99.90
5834;DHT22;2943;48.012;10.968;2023-11-19T08:44:58;10.30;99.90
5834;DHT22;2943;48.012;10.968;2023-11-19T08:47:24;10.30;99.90
5834;DHT22;2943;48.012;10.968;2023-11-19T08:49:51;10.30;99.90
5834;DHT22;2943;48.012;10.968;2023-11-19T08:52:18;10.30;99.90
5834;DHT22;2943;48.012;10.968;2023-11-19T08:54:45;10.40;99.90
5834;DHT22;2943;48.012;10.968;2023-11-19T08:57:12;10.40;99.90
5834;DHT22;2943;48.012;10.968;2023-11-19T08:59:38;10.40;99.90
5834;DHT22;2943;48.012;10.968;2023-11-19T09:02:06;10.50;99.90
5834;DHT22;2943;48.012;10.968;2023-11-19T09:04:34;10.50;99.90
5834;DHT22;2943;48.012;10.968;2023-11-19T09:07:04;10.50;99.90
5834;DHT22;2943;48.012;10.968;2023-11-19T09:09:31;10.50;99.90
5834;DHT22;2943;48.012;10.968;2023-11-19T09:12:01;10.50;99.90
5834;DHT22;2943;48.012;10.968;2023-11-19T09:14:28;10.50;99.90
5834;DHT22;2943;48.012;10.968;2023-11-19T09:16:57;10.50;99.90
5834;DHT22;2943;48.012;10.968;2023-11-19T09:19:26;10.50;99.90
5834;DHT22;2943;48.012;10.968;2023-11-19T09:21:53;10.50;99.90
5834;DHT22;2943;48.012;10.968;2023-11-19T09:24:19;10.50;99.90
5834;DHT22;2943;48.012;10.968;2023-11-19T09:26:46;10.50;99.90
5834;DHT22;2943;48.012;10.968;2023-11-19T09:29:13;10.50;99.90
5834;DHT22;2943;48.012;10.968;2023-11-19T09:31:41;10.50;99.90
5834;DHT22;2943;48.012;10.968;2023-11-19T09:34:10;10.60;99.90
5834;DHT22;2943;48.012;10.968;2023-11-19T09:36:38;10.50;99.90
5834;DHT22;2943;48.012;10.968;2023-11-19T09:39:09;10.60;99.90
5834;DHT22;2943;48.012;10.968;2023-11-19T09:41:35;10.60;99.90
5834;DHT22;2943;48.012;10.968;2023-11-19T09:44:05;10.60;99.90
5834;DHT22;2943;48.012;10.968;2023-11-19T09:46:31;10.60;99.90
5834;DHT22;2943;48.012;10.968;2023-11-19T09:48:59;10.60;99.90
5834;DHT22;2943;48.012;10.968;2023-11-19T09:51:27;10.60;99.90
5834;DHT22;2943;48.012;10.968;2023-11-19T09:53:54;10.70;99.90
5834;DHT22;2943;48.012;10.968;2023-11-19T09:56:21;10.70;99.90
5834;DHT22;2943;48.012;10.968;2023-11-19T09:58:48;10.70;99.90
5834;DHT22;2943;48.012;10.968;2023-11-19T10:01:15;10.70;99.90
5834;DHT22;2943;48.012;10.968;2023-11-19T10:03:42;10.80;99.90
5834;DHT22;2943;48.012;10.968;2023-11-19T10:06:11;10.80;99.90
5834;DHT22;2943;48.012;10.968;2023-11-19T10:08:44;10.80;99.90
5834;DHT22;2943;48.012;10.968;2023-11-19T10:11:13;10.80;99.90
5834;DHT22;2943;48.012;10.968;2023-11-19T10:13:40;10.90;99.90
5834;DHT22;2943;48.012;10.968;2023-11-19T10:16:08;10.90;99.90
5834;DHT22;2943;48.012;10.968;2023-11-19T10:18:36;10.90;99.90
5834;DHT22;2943;48.012;10.968;2023-11-19T10:21:04;10.90;99.90
5834;DHT22;2943;48.012;10.968;2023-11-19T10:23:31;11.00;99.90
5834;DHT22;2943;48.012;10.968;2023-11-19T10:26:02;11.00;99.90
5834;DHT22;2943;48.012;10.968;2023-11-19T10:28:37;11.00;99.90
5834;DHT22;2943;48.012;10.968;2023-11-19T10:31:05;11.00;99.90
5834;DHT22;2943;48.012;10.968;2023-11-19T10:33:32;11.10;99.90
5834;DHT22;2943;48.012;10.968;2023-11-19T10:35:59;11.10;99.90
5834;DHT22;2943;48.012;10.968;2023-11-19T10:38:25;11.10;99.90
5834;DHT22;2943;48.012;10.968;2023-11-19T10:40:53;11.20;99.90
5834;DHT22;2943;48.012;10.968;2023-11-19T10:43:20;11.20;99.90
5834;DHT22;2943;48.012;10.968;2023-11-19T10:45:51;11.30;99.90
5834;DHT22;2943;48.012;10.968;2023-11-19T10:48:18;11.30;99.90
5834;DHT22;2943;48.012;10.968;2023-11-19T10:50:46;11.30;99.90
5834;DHT22;2943;48.012;10.968;2023-11-19T10:53:17;11.30;99.90
5834;DHT22;2943;48.012;10.968;2023-11-19T10:55:46;11.30;99.90
5834;DHT22;2943;48.012;10.968;2023-11-19T10:58:15;11.40;99.90
5834;DHT22;2943;48.012;10.968;2023-11-19T11:00:43;11.40;99.90
5834;DHT22;2943;48.012;10.968;2023-11-19T11:03:14;11.40;99.90
5834;DHT22;2943;48.012;10.968;2023-11-19T11:05:42;11.50;99.90
5834;DHT22;2943;48.012;10.968;2023-11-19T11:08:09;11.50;99.90
5834;DHT22;2943;48.012;10.968;2023-11-19T11:10:39;11.50;99.90
5834;DHT22;2943;48.012;10.968;2023-11-19T11:13:08;11.50;99.90
5834;DHT22;2943;48.012;10.968;2023-11-19T11:15:40;11.60;99.90
5834;DHT22;2943;48.012;10.968;2023-11-19T11:18:08;11.60;99.90
5834;DHT22;2943;48.012;10.968;2023-11-19T11:20:40;11.70;99.90
5834;DHT22;2943;48.012;10.968;2023-11-19T11:25:56;11.70;99.90
5834;DHT22;2943;48.012;10.968;2023-11-19T11:28:27;11.80;99.90
5834;DHT22;2943;48.012;10.968;2023-11-19T11:31:00;11.80;99.90
5834;DHT22;2943;48.012;10.968;2023-11-19T11:33:34;11.80;99.90
5834;DHT22;2943;48.012;10.968;2023-11-19T11:36:09;11.80;99.90
5834;DHT22;2943;48.012;10.968;2023-11-19T11:38:39;11.90;99.90
5834;DHT22;2943;48.012;10.968;2023-11-19T11:41:16;11.90;99.90
5834;DHT22;2943;48.012;10.968;2023-11-19T11:43:44;11.90;99.90
5834;DHT22;2943;48.012;10.968;2023-11-19T11:48:53;12.00;99.90
5834;DHT22;2943;48.012;10.968;2023-11-19T11:51:26;12.00;99.90
5834;DHT22;2943;48.012;10.968;2023-11-19T11:54:25;12.10;99.90
5834;DHT22;2943;48.012;10.968;2023-11-19T11:57:00;12.10;99.90
5834;DHT22;2943;48.012;10.968;2023-11-19T11:59:31;12.10;99.90
5834;DHT22;2943;48.012;10.968;2023-11-19T12:01:58;12.10;99.90
5834;DHT22;2943;48.012;10.968;2023-11-19T12:04:27;12.10;99.90
5834;DHT22;2943;48.012;10.968;2023-11-19T12:07:08;12.10;99.90
5834;DHT22;2943;48.012;10.968;2023-11-19T12:09:39;12.20;99.90
5834;DHT22;2943;48.012;10.968;2023-11-19T12:12:07;12.20;99.90
5834;DHT22;2943;48.012;10.968;2023-11-19T12:20:06;12.20;99.90
5834;DHT22;2943;48.012;10.968;2023-11-19T12:22:39;12.20;99.90
5834;DHT22;2943;48.012;10.968;2023-11-19T12:25:06;12.20;99.90
5834;DHT22;2943;48.012;10.968;2023-11-19T12:27:34;12.20;99.90
5834;DHT22;2943;48.012;10.968;2023-11-19T12:30:01;12.20;99.90
5834;DHT22;2943;48.012;10.968;2023-11-19T12:32:37;12.20;99.90
5834;DHT22;2943;48.012;10.968;2023-11-19T12:35:05;12.10;99.90
5834;DHT22;2943;48.012;10.968;2023-11-19T12:37:32;12.10;99.90
5834;DHT22;2943;48.012;10.968;2023-11-19T12:40:05;12.10;99.90
5834;DHT22;2943;48.012;10.968;2023-11-19T12:42:38;12.10;99.90
5834;DHT22;2943;48.012;10.968;2023-11-19T12:45:06;12.10;99.90
5834;DHT22;2943;48.012;10.968;2023-11-19T12:47:33;12.10;99.90
5834;DHT22;2943;48.012;10.968;2023-11-19T12:50:00;12.20;99.90
5834;DHT22;2943;48.012;10.968;2023-11-19T12:52:27;12.20;99.90
5834;DHT22;2943;48.012;10.968;2023-11-19T12:54:55;12.20;99.90
5834;DHT22;2943;48.012;10.968;2023-11-19T12:57:36;12.30;99.90
5834;DHT22;2943;48.012;10.968;2023-11-19T13:00:04;12.30;99.90
5834;DHT22;2943;48.012;10.968;2023-11-19T13:02:44;12.30;99.90
5834;DHT22;2943;48.012;10.968;2023-11-19T13:05:21;12.30;99.90
5834;DHT22;2943;48.012;10.968;2023-11-19T13:07:48;12.40;99.90
5834;DHT22;2943;48.012;10.968;2023-11-19T13:10:16;12.40;99.90
5834;DHT22;2943;48.012;10.968;2023-11-19T13:12:45;12.40;99.90
5834;DHT22;2943;48.012;10.968;2023-11-19T13:15:25;12.40;99.90
5834;DHT22;2943;48.012;10.968;2023-11-19T13:17:52;12.40;99.90
5834;DHT22;2943;48.012;10.968;2023-11-19T13:20:19;12.40;99.90
5834;DHT22;2943;48.012;10.968;2023-11-19T13:22:55;12.30;99.90
5834;DHT22;2943;48.012;10.968;2023-11-19T13:25:22;12.30;99.90
5834;DHT22;2943;48.012;10.968;2023-11-19T13:27:50;12.20;99.90
5834;DHT22;2943;48.012;10.968;2023-11-19T13:30:17;12.30;99.90
5834;DHT22;2943;48.012;10.968;2023-11-19T13:32:44;12.20;99.90
5834;DHT22;2943;48.012;10.968;2023-11-19T13:35:12;12.30;99.90
5834;DHT22;2943;48.012;10.968;2023-11-19T13:37:39;12.20;99.90
5834;DHT22;2943;48.012;10.968;2023-11-19T13:40:06;12.20;99.90
5834;DHT22;2943;48.012;10.968;2023-11-19T13:42:36;12.30;99.90
5834;DHT22;2943;48.012;10.968;2023-11-19T13:45:08;12.30;99.90
5834;DHT22;2943;48.012;10.968;2023-11-19T13:47:37;12.20;99.90
5834;DHT22;2943;48.012;10.968;2023-11-19T13:50:08;12.20;99.90
5834;DHT22;2943;48.012;10.968;2023-11-19T13:52:36;12.20;99.90
5834;DHT22;2943;48.012;10.968;2023-11-19T13:55:06;12.20;99.90
5834;DHT22;2943;48.012;10.968;2023-11-19T13:57:34;12.20;99.90
5834;DHT22;2943;48.012;10.968;2023-11-19T14:00:03;12.20;99.90
5834;DHT22;2943;48.012;10.968;2023-11-19T14:02:36;12.20;99.90
5834;DHT22;2943;48.012;10.968;2023-11-19T14:05:03;12.20;99.90
5834;DHT22;2943;48.012;10.968;2023-11-19T14:07:31;12.30;99.90
5834;DHT22;2943;48.012;10.968;2023-11-19T14:09:59;12.20;99.90
5834;DHT22;2943;48.012;10.968;2023-11-19T14:12:27;12.20;99.90
5834;DHT22;2943;48.012;10.968;2023-11-19T14:14:54;12.20;99.90
5834;DHT22;2943;48.012;10.968;2023-11-19T14:17:21;12.20;99.90
5834;DHT22;2943;48.012;10.968;2023-11-19T14:19:49;12.10;99.90
5834;DHT22;2943;48.012;10.968;2023-11-19T14:22:16;12.10;99.90
5834;DHT22;2943;48.012;10.968;2023-11-19T14:24:43;12.00;99.90
5834;DHT22;2943;48.012;10.968;2023-11-19T14:27:09;12.00;99.90
5834;DHT22;2943;48.012;10.968;2023-11-19T14:29:37;11.90;99.90
5834;DHT22;2943;48.012;10.968;2023-11-19T14:32:05;11.80;99.90
5834;DHT22;2943;48.012;10.968;2023-11-19T14:34:32;11.80;99.90
5834;DHT22;2943;48.012;10.968;2023-11-19T14:37:00;11.80;99.90
5834;DHT22;2943;48.012;10.968;2023-11-19T14:39:27;11.70;99.90
5834;DHT22;2943;48.012;10.968;2023-11-19T14:41:56;11.70;99.90
5834;DHT22;2943;48.012;10.968;2023-11-19T14:44:26;11.70;99.90
5834;DHT22;2943;48.012;10.968;2023-11-19T14:46:54;11.60;99.90
5834;DHT22;2943;48.012;10.968;2023-11-19T14:49:24;11.60;99.90
5834;DHT22;2943;48.012;10.968;2023-11-19T14:51:52;11.60;99.90
5834;DHT22;2943;48.012;10.968;2023-11-19T14:54:20;11.60;99.90
5834;DHT22;2943;48.012;10.968;2023-11-19T14:56:47;11.60;99.90
5834;DHT22;2943;48.012;10.968;2023-11-19T14:59:13;11.60;99.90
5834;DHT22;2943;48.012;10.968;2023-11-19T15:01:40;11.50;99.90
5834;DHT22;2943;48.012;10.968;2023-11-19T15:04:07;11.50;99.90
5834;DHT22;2943;48.012;10.968;2023-11-19T15:06:32;11.50;99.90
5834;DHT22;2943;48.012;10.968;2023-11-19T15:08:59;11.50;99.90
5834;DHT22;2943;48.012;10.968;2023-11-19T15:11:27;11.50;99.90
5834;DHT22;2943;48.012;10.968;2023-11-19T15:13:54;11.40;99.90
5834;DHT22;2943;48.012;10.968;2023-11-19T15:16:20;11.40;99.90
5834;DHT22;2943;48.012;10.968;2023-11-19T15:18:56;11.40;99.90
5834;DHT22;2943;48.012;10.968;2023-11-19T15:21:24;11.30;99.90
5834;DHT22;2943;48.012;10.968;2023-11-19T15:23:51;11.30;99.90
5834;DHT22;2943;48.012;10.968;2023-11-19T15:26:18;11.30;99.90
5834;DHT22;2943;48.012;10.968;2023-11-19T15:28:46;11.50;99.90
5834;DHT22;2943;48.012;10.968;2023-11-19T15:31:14;11.40;99.90
5834;DHT22;2943;48.012;10.968;2023-11-19T15:33:43;11.40;99.90
5834;DHT22;2943;48.012;10.968;2023-11-19T15:36:12;11.30;99.90
5834;DHT22;2943;48.012;10.968;2023-11-19T15:38:39;11.30;99.90
5834;DHT22;2943;48.012;10.968;2023-11-19T15:41:06;11.30;99.90
5834;DHT22;2943;48.012;10.968;2023-11-19T15:43:33;11.20;99.90
5834;DHT22;2943;48.012;10.968;2023-11-19T15:46:01;11.20;99.90
5834;DHT22;2943;48.012;10.968;2023-11-19T15:48:28;11.10;99.90
5834;DHT22;2943;48.012;10.968;2023-11-19T15:50:54;11.10;99.90
5834;DHT22;2943;48.012;10.968;2023-11-19T15:53:21;11.10;99.90
5834;DHT22;2943;48.012;10.968;2023-11-19T15:55:48;11.10;99.90
5834;DHT22;2943;48.012;10.968;2023-11-19T15:58:14;11.00;99.90
5834;DHT22;2943;48.012;10.968;2023-11-19T16:00:43;11.10;99.90
5834;DHT22;2943;48.012;10.968;2023-11-19T16:03:13;11.10;99.90
5834;DHT22;2943;48.012;10.968;2023-11-19T16:05:40;11.00;99.90
5834;DHT22;2943;48.012;10.968;2023-11-19T16:08:07;11.00;99.90
5834;DHT22;2943;48.012;10.968;2023-11-19T16:10:36;11.00;99.90